Time;durP1;ratioP1;P1;durP2;ratioP2;P2;SDS_P1;SDS_P2;PMS_P1;PMS_P2;Temp;Humidity;BMP_temperature;BMP_pressure;BME280_temperature;BME280_humidity;BME280_pressure;Samples;Min_cycle;Max_cycle;Signal;HPM_P1;HPM_P2
2023/12/07 00:02:18;;;;;;;2.83;2.30;;;7.70;91.60;;;;;;4920841;29;20215;-89
2023/12/07 00:04:47;;;;;;;3.20;2.97;;;7.70;91.60;;;;;;4927956;29;20199;-88
2023/12/07 00:07:16;;;;;;;4.43;2.47;;;7.70;91.60;;;;;;4923674;29;20223;-87
2023/12/07 00:09:46;;;;;;;2.80;1.97;;;7.70;91.50;;;;;;4918162;29;20204;-87
2023/12/07 00:12:15;;;;;;;5.70;3.03;;;7.60;91.60;;;;;;4921006;29;20202;-88
2023/12/07 00:14:44;;;;;;;1.70;1.50;;;7.60;91.70;;;;;;4917057;29;20216;-87
2023/12/07 00:17:13;;;;;;;4.13;2.87;;;7.60;91.80;;;;;;4919403;29;20203;-87
2023/12/07 00:19:53;;;;;;;2.67;1.97;;;7.50;91.70;;;;;;4919560;29;20185;-86
2023/12/07 00:22:26;;;;;;;2.90;2.53;;;7.50;91.70;;;;;;4917203;29;20211;-88
2023/12/07 00:24:55;;;;;;;2.20;2.00;;;7.50;91.80;;;;;;4914597;29;20236;-87
2023/12/07 00:27:28;;;;;;;1.60;1.50;;;7.50;91.90;;;;;;4918763;29;20691;-86
2023/12/07 00:30:00;;;;;;;4.93;2.33;;;7.40;91.90;;;;;;4927628;29;20600;-87
2023/12/07 00:32:32;;;;;;;3.27;2.97;;;7.40;92.00;;;;;;4922192;29;20897;-87
2023/12/07 00:35:04;;;;;;;3.63;1.93;;;7.50;92.10;;;;;;4900906;29;20246;-88
2023/12/07 00:37:37;;;;;;;1.50;1.37;;;7.50;92.20;;;;;;4898372;29;20215;-87
2023/12/07 00:40:08;;;;;;;2.47;2.27;;;7.40;92.10;;;;;;4922165;29;20270;-87
2023/12/07 00:42:39;;;;;;;1.90;1.80;;;7.40;92.10;;;;;;4902065;29;20274;-88
2023/12/07 00:45:09;;;;;;;1.97;1.43;;;7.40;92.00;;;;;;4918287;29;20192;-85
2023/12/07 00:47:44;;;;;;;1.13;0.93;;;7.40;92.00;;;;;;4922052;29;20223;-88
2023/12/07 00:50:18;;;;;;;3.50;3.17;;;7.40;92.00;;;;;;4917130;29;20238;-87
2023/12/07 00:52:53;;;;;;;2.43;2.03;;;7.40;92.00;;;;;;4914808;29;20207;-88
2023/12/07 00:55:24;;;;;;;2.10;1.80;;;7.40;91.90;;;;;;4918931;29;20238;-87
2023/12/07 00:57:53;;;;;;;4.10;2.37;;;7.40;91.80;;;;;;4920435;29;20220;-86
2023/12/07 01:00:21;;;;;;;2.17;2.07;;;7.40;91.80;;;;;;4917374;29;20204;-86
2023/12/07 01:02:52;;;;;;;5.13;3.17;;;7.40;91.70;;;;;;4917771;29;20202;-86
2023/12/07 01:05:26;;;;;;;2.07;1.97;;;7.30;91.60;;;;;;4916697;29;20224;-87
2023/12/07 01:07:56;;;;;;;1.47;1.37;;;7.40;91.70;;;;;;4921306;29;20223;-87
2023/12/07 01:10:27;;;;;;;2.03;1.93;;;7.40;91.60;;;;;;4919514;29;20202;-86
2023/12/07 01:13:03;;;;;;;3.47;3.23;;;7.40;91.70;;;;;;4918220;29;20234;-87
2023/12/07 01:15:33;;;;;;;2.03;1.93;;;7.30;91.70;;;;;;4926174;29;20210;-89
2023/12/07 01:18:02;;;;;;;1.37;1.27;;;7.30;91.60;;;;;;4917161;29;20200;-88
2023/12/07 01:20:37;;;;;;;1.93;1.47;;;7.30;91.70;;;;;;4900526;29;20196;-88
2023/12/07 01:23:08;;;;;;;2.27;1.80;;;7.30;91.70;;;;;;4916922;29;20192;-87
2023/12/07 01:25:41;;;;;;;2.27;2.07;;;7.30;91.70;;;;;;4900695;29;20199;-84
2023/12/07 01:28:09;;;;;;;2.63;1.63;;;7.30;91.70;;;;;;4918124;29;20227;-83
2023/12/07 01:30:38;;;;;;;1.27;1.17;;;7.30;92.00;;;;;;4917917;29;20224;-87
2023/12/07 01:33:08;;;;;;;1.60;1.17;;;7.30;91.60;;;;;;4921799;29;20184;-88
2023/12/07 01:35:39;;;;;;;3.40;2.50;;;7.30;91.70;;;;;;4921714;29;20617;-86
2023/12/07 01:38:09;;;;;;;2.50;1.50;;;7.20;91.60;;;;;;4908198;29;20210;-85
2023/12/07 01:40:38;;;;;;;5.50;2.73;;;7.20;91.70;;;;;;4918705;29;20227;-85
2023/12/07 01:43:15;;;;;;;2.10;2.00;;;7.20;91.70;;;;;;4917875;29;20204;-85
2023/12/07 01:45:48;;;;;;;1.50;1.10;;;7.20;91.70;;;;;;4903775;29;20203;-86
2023/12/07 01:48:17;;;;;;;1.90;1.77;;;7.10;91.70;;;;;;4919899;29;20230;-89
2023/12/07 01:50:50;;;;;;;1.50;1.40;;;7.10;91.80;;;;;;4920779;29;20205;-84
2023/12/07 01:53:22;;;;;;;1.27;1.17;;;7.10;91.70;;;;;;4916225;29;20230;-87
2023/12/07 01:55:54;;;;;;;2.00;1.85;;;7.10;91.80;;;;;;4928201;29;20545;-88
2023/12/07 01:58:24;;;;;;;1.00;1.00;;;7.00;91.90;;;;;;4922760;29;20287;-86
2023/12/07 02:00:54;;;;;;;1.87;1.70;;;7.00;91.90;;;;;;4917611;29;20291;-86
2023/12/07 02:03:25;;;;;;;1.13;1.13;;;7.00;91.90;;;;;;4919207;29;20200;-87
2023/12/07 02:06:00;;;;;;;0.77;0.77;;;7.00;91.90;;;;;;4904148;29;20196;-86
2023/12/07 02:08:30;;;;;;;2.30;1.20;;;7.00;91.90;;;;;;4921829;29;20215;-88
2023/12/07 02:10:59;;;;;;;2.43;2.10;;;7.10;91.90;;;;;;4925593;29;20199;-87
2023/12/07 02:13:28;;;;;;;2.43;2.23;;;7.10;92.00;;;;;;4914162;29;20199;-89
2023/12/07 02:15:59;;;;;;;1.63;1.53;;;7.10;91.90;;;;;;4920827;29;20219;-87
2023/12/07 02:18:37;;;;;;;1.37;0.83;;;7.20;91.80;;;;;;4918373;29;20206;-89
2023/12/07 02:21:17;;;;;;;1.07;1.07;;;7.20;91.80;;;;;;4902968;29;20206;-84
2023/12/07 02:23:48;;;;;;;1.27;1.23;;;7.10;91.70;;;;;;4918539;29;20205;-87
2023/12/07 02:26:33;;;;;;;1.10;1.10;;;7.10;91.70;;;;;;4918801;29;20210;-88
2023/12/07 02:29:02;;;;;;;1.57;1.47;;;7.10;91.80;;;;;;4923694;29;20294;-87
2023/12/07 02:31:32;;;;;;;1.07;1.07;;;7.00;91.60;;;;;;4920273;29;20196;-86
2023/12/07 02:34:06;;;;;;;1.63;1.33;;;7.00;91.70;;;;;;4921865;29;20203;-87
2023/12/07 02:36:41;;;;;;;1.27;1.17;;;7.00;91.70;;;;;;4914232;29;20299;-86
2023/12/07 02:39:12;;;;;;;0.80;0.80;;;7.00;91.80;;;;;;4919728;29;20228;-86
2023/12/07 02:41:48;;;;;;;1.40;1.30;;;6.90;91.80;;;;;;4913906;29;20203;-88
2023/12/07 02:44:18;;;;;;;1.70;1.20;;;7.00;91.80;;;;;;4919958;29;20666;-87
2023/12/07 02:46:48;;;;;;;0.50;0.50;;;7.00;91.90;;;;;;4919867;29;20206;-87
2023/12/07 02:49:22;;;;;;;1.50;1.23;;;7.00;91.80;;;;;;4913409;29;20680;-87
2023/12/07 02:51:53;;;;;;;1.23;1.13;;;7.00;91.90;;;;;;4921825;29;20211;-87
2023/12/07 02:54:24;;;;;;;0.90;0.90;;;7.00;91.90;;;;;;4923200;29;20235;-88
2023/12/07 02:56:55;;;;;;;3.00;2.13;;;7.00;91.80;;;;;;4906571;29;20203;-88
2023/12/07 02:59:25;;;;;;;2.30;1.67;;;7.00;91.60;;;;;;4920577;29;20225;-88
2023/12/07 03:01:55;;;;;;;3.87;1.93;;;6.90;91.70;;;;;;4919172;29;20196;-87
2023/12/07 03:04:25;;;;;;;2.07;1.90;;;6.90;91.70;;;;;;4920529;29;20239;-87
2023/12/07 03:06:55;;;;;;;1.60;1.50;;;6.90;91.70;;;;;;4920139;29;20199;-86
2023/12/07 03:09:26;;;;;;;2.20;1.47;;;6.90;91.70;;;;;;4924466;29;20294;-86
2023/12/07 03:12:00;;;;;;;0.90;0.90;;;6.90;91.70;;;;;;4915372;29;20291;-88
2023/12/07 03:14:35;;;;;;;1.80;1.70;;;7.00;91.80;;;;;;4911829;29;20208;-86
2023/12/07 03:17:04;;;;;;;1.47;1.37;;;7.00;91.80;;;;;;4902805;29;20208;-87
2023/12/07 03:19:43;;;;;;;1.80;1.57;;;7.00;91.70;;;;;;4922298;29;20200;-86
2023/12/07 03:22:16;;;;;;;3.37;2.80;;;7.00;91.50;;;;;;4919802;29;20234;-85
2023/12/07 03:24:48;;;;;;;0.93;0.93;;;7.00;91.60;;;;;;4915754;29;20195;-85
2023/12/07 03:27:19;;;;;;;1.77;1.67;;;7.00;91.60;;;;;;4898028;29;20200;-85
2023/12/07 03:29:51;;;;;;;2.00;1.87;;;7.00;91.60;;;;;;4918368;29;20263;-86
2023/12/07 03:32:21;;;;;;;1.73;1.00;;;7.00;91.50;;;;;;4920452;29;20210;-84
2023/12/07 03:34:52;;;;;;;3.13;1.60;;;7.00;91.50;;;;;;4918176;29;20650;-86
2023/12/07 03:37:23;;;;;;;1.37;0.77;;;7.00;91.50;;;;;;4901290;29;20229;-86
2023/12/07 03:39:53;;;;;;;3.13;2.70;;;6.90;91.60;;;;;;4930828;29;20329;-86
2023/12/07 03:42:24;;;;;;;0.70;0.70;;;6.80;91.60;;;;;;4921882;29;20203;-86
2023/12/07 03:45:13;;;;;;;0.47;0.47;;;6.80;91.60;;;;;;4920432;29;20569;-87
2023/12/07 03:47:42;;;;;;;1.33;0.90;;;6.80;91.60;;;;;;4904131;29;20203;-88
2023/12/07 03:50:12;;;;;;;0.83;0.80;;;6.80;91.60;;;;;;4925581;29;20227;-87
2023/12/07 03:52:42;;;;;;;2.00;1.23;;;6.70;91.60;;;;;;4918847;29;20176;-86
2023/12/07 03:55:12;;;;;;;1.00;1.00;;;6.70;91.60;;;;;;4918867;29;20656;-88
2023/12/07 03:57:42;;;;;;;1.33;1.23;;;6.70;91.60;;;;;;4920957;29;20192;-87
2023/12/07 04:00:13;;;;;;;2.10;1.70;;;6.70;91.70;;;;;;4919042;29;20270;-88
2023/12/07 04:02:48;;;;;;;1.73;1.63;;;6.70;91.70;;;;;;4913114;29;20201;-89
2023/12/07 04:05:21;;;;;;;0.70;0.70;;;6.70;91.70;;;;;;4918470;29;20663;-88
2023/12/07 04:07:50;;;;;;;2.50;1.47;;;6.70;91.70;;;;;;4920581;29;20231;-88
2023/12/07 04:10:19;;;;;;;1.07;1.03;;;6.60;91.70;;;;;;4918732;29;20223;-85
2023/12/07 04:12:49;;;;;;;1.10;1.00;;;6.70;91.80;;;;;;4915833;29;20196;-91
2023/12/07 04:15:22;;;;;;;1.13;1.03;;;6.70;91.80;;;;;;4902743;29;20234;-86
2023/12/07 04:17:52;;;;;;;1.60;1.23;;;6.70;91.80;;;;;;4920401;29;20235;-86
2023/12/07 04:20:22;;;;;;;1.83;1.73;;;6.70;91.80;;;;;;4919062;29;20205;-89
2023/12/07 04:22:52;;;;;;;1.20;1.20;;;6.70;91.80;;;;;;4918837;29;20659;-85
2023/12/07 04:25:22;;;;;;;1.53;1.40;;;6.60;91.60;;;;;;4917967;29;20214;-82
2023/12/07 04:27:55;;;;;;;0.80;0.80;;;6.70;91.70;;;;;;4917729;29;20195;-86
2023/12/07 04:30:26;;;;;;;1.73;1.63;;;6.70;91.80;;;;;;4915433;29;22524;-86
2023/12/07 04:32:55;;;;;;;1.20;1.03;;;6.70;91.90;;;;;;4916370;29;20206;-84
2023/12/07 04:35:25;;;;;;;3.83;1.23;;;6.70;91.80;;;;;;4920966;29;20233;-87
2023/12/07 04:37:55;;;;;;;1.43;1.30;;;6.70;91.70;;;;;;4919132;29;20203;-84
2023/12/07 04:40:24;;;;;;;2.40;0.97;;;6.60;91.80;;;;;;4916232;29;20234;-86
2023/12/07 04:42:57;;;;;;;1.43;1.33;;;6.60;91.80;;;;;;4901195;29;20575;-86
2023/12/07 04:45:28;;;;;;;1.47;1.37;;;6.60;91.80;;;;;;4918255;29;20207;-87
2023/12/07 04:47:57;;;;;;;0.97;0.97;;;6.60;91.90;;;;;;4918301;29;20286;-82
2023/12/07 04:50:27;;;;;;;1.10;1.10;;;6.60;91.80;;;;;;4913806;29;20227;-86
2023/12/07 04:52:57;;;;;;;1.00;1.00;;;6.60;91.90;;;;;;4920219;29;20863;-88
2023/12/07 04:55:28;;;;;;;10.13;3.03;;;6.60;92.00;;;;;;4915268;29;20259;-86
2023/12/07 04:58:01;;;;;;;1.10;0.83;;;6.60;92.00;;;;;;4915154;29;20694;-87
2023/12/07 05:00:30;;;;;;;2.80;2.03;;;6.60;92.00;;;;;;4911601;29;20691;-85
2023/12/07 05:03:02;;;;;;;1.40;1.33;;;6.60;92.00;;;;;;4919897;29;20647;-86
2023/12/07 05:05:33;;;;;;;1.27;1.17;;;6.60;92.00;;;;;;4920925;29;20199;-87
2023/12/07 05:08:03;;;;;;;2.07;1.90;;;6.60;91.80;;;;;;4918891;29;20202;-87
2023/12/07 05:10:36;;;;;;;4.00;1.57;;;6.60;91.80;;;;;;4920969;29;20844;-87
2023/12/07 05:13:06;;;;;;;2.37;2.17;;;6.60;91.90;;;;;;4919617;29;20260;-88
2023/12/07 05:15:41;;;;;;;2.17;1.53;;;6.60;91.90;;;;;;4925466;29;20668;-85
2023/12/07 05:18:10;;;;;;;1.70;1.60;;;6.60;92.00;;;;;;4933512;29;20539;-86
2023/12/07 05:20:39;;;;;;;2.00;1.13;;;6.60;92.40;;;;;;4906177;29;20203;-86
2023/12/07 05:23:17;;;;;;;0.67;0.67;;;6.60;92.10;;;;;;4921780;29;20659;-86
2023/12/07 05:25:47;;;;;;;1.57;0.97;;;6.60;92.10;;;;;;4916572;29;20973;-84
2023/12/07 05:28:18;;;;;;;2.13;1.60;;;6.70;92.10;;;;;;4915749;29;20909;-87
2023/12/07 05:30:49;;;;;;;1.90;1.67;;;6.70;92.10;;;;;;4914669;29;21125;-85
2023/12/07 05:33:19;;;;;;;1.03;1.03;;;6.70;92.10;;;;;;4918026;29;20299;-84
2023/12/07 05:35:50;;;;;;;2.63;1.50;;;6.70;92.00;;;;;;4912281;29;20246;-87
2023/12/07 05:38:19;;;;;;;2.30;2.13;;;6.70;92.00;;;;;;4921259;29;20199;-85
2023/12/07 05:40:48;;;;;;;2.23;2.13;;;6.70;92.00;;;;;;4917783;29;20260;-86
2023/12/07 05:43:24;;;;;;;1.97;1.40;;;6.60;92.10;;;;;;4917062;29;20207;-84
2023/12/07 05:45:54;;;;;;;1.23;1.13;;;6.60;92.00;;;;;;4915963;29;20227;-88
2023/12/07 05:48:24;;;;;;;1.27;1.23;;;6.60;92.10;;;;;;4921252;29;20294;-87
2023/12/07 05:50:55;;;;;;;1.23;1.17;;;6.60;92.10;;;;;;4920694;29;20259;-84
2023/12/07 05:53:24;;;;;;;3.13;2.37;;;6.60;92.00;;;;;;4921991;29;20562;-87
2023/12/07 05:55:53;;;;;;;2.13;1.77;;;6.60;92.00;;;;;;4918470;29;20211;-86
2023/12/07 05:58:24;;;;;;;1.87;1.77;;;6.70;92.10;;;;;;4920528;29;20204;-89
2023/12/07 06:00:54;;;;;;;1.40;1.30;;;6.60;92.00;;;;;;4921717;29;20207;-89
2023/12/07 06:03:25;;;;;;;1.30;1.30;;;6.60;92.00;;;;;;4925960;29;20196;-87
2023/12/07 06:05:54;;;;;;;3.67;2.20;;;6.70;92.20;;;;;;4921296;29;20537;-88
2023/12/07 06:08:24;;;;;;;4.33;1.50;;;6.70;92.10;;;;;;4921899;29;20251;-85
2023/12/07 06:10:53;;;;;;;1.47;1.17;;;6.70;92.00;;;;;;4918682;29;20282;-89
2023/12/07 06:13:25;;;;;;;2.47;2.23;;;6.80;92.00;;;;;;4921350;29;20191;-85
2023/12/07 06:16:01;;;;;;;1.20;1.20;;;6.70;92.00;;;;;;4925771;29;20183;-89
2023/12/07 06:18:29;;;;;;;1.27;1.27;;;6.70;92.10;;;;;;4927941;29;20294;-87
2023/12/07 06:20:59;;;;;;;1.60;1.17;;;6.70;92.10;;;;;;4923478;29;20235;-86
2023/12/07 06:23:30;;;;;;;1.03;1.03;;;6.60;91.90;;;;;;4919584;29;20241;-86
2023/12/07 06:26:01;;;;;;;1.67;1.57;;;6.70;91.90;;;;;;4922622;29;20639;-87
2023/12/07 06:28:32;;;;;;;2.60;1.93;;;6.70;92.00;;;;;;4931299;29;20222;-87
2023/12/07 06:31:08;;;;;;;1.87;1.77;;;6.70;92.00;;;;;;4921657;29;20241;-86
2023/12/07 06:33:37;;;;;;;0.53;0.53;;;6.60;92.00;;;;;;4919925;29;20219;-87
2023/12/07 06:36:10;;;;;;;1.57;1.47;;;6.70;91.90;;;;;;4917333;29;20186;-88
2023/12/07 06:38:39;;;;;;;3.03;2.40;;;6.60;91.90;;;;;;4925057;29;20943;-87
2023/12/07 06:41:08;;;;;;;2.93;2.40;;;6.60;92.10;;;;;;4922533;29;20228;-87
2023/12/07 06:43:38;;;;;;;1.03;1.03;;;6.60;92.00;;;;;;4922113;29;20199;-88
2023/12/07 06:46:07;;;;;;;1.83;1.67;;;6.60;92.00;;;;;;4906368;29;20227;-88
2023/12/07 06:48:37;;;;;;;1.90;1.70;;;6.60;91.90;;;;;;4925015;29;20209;-88
2023/12/07 06:51:07;;;;;;;0.63;0.63;;;6.60;91.90;;;;;;4891656;29;20225;-87
2023/12/07 06:53:40;;;;;;;1.80;1.67;;;6.60;92.00;;;;;;4921364;29;20202;-88
2023/12/07 06:56:09;;;;;;;1.50;1.40;;;6.60;92.00;;;;;;4910454;29;20196;-85
2023/12/07 06:58:44;;;;;;;2.17;1.97;;;6.60;92.00;;;;;;4919267;29;20211;-86
2023/12/07 07:01:18;;;;;;;1.37;1.27;;;6.70;92.00;;;;;;4921352;29;20214;-86
2023/12/07 07:03:49;;;;;;;1.13;1.03;;;6.60;92.00;;;;;;4917050;29;20210;-84
2023/12/07 07:06:19;;;;;;;2.47;1.87;;;6.60;91.90;;;;;;4900859;29;20252;-85
2023/12/07 07:08:49;;;;;;;1.07;1.07;;;6.60;91.90;;;;;;4913350;29;20196;-80
2023/12/07 07:11:18;;;;;;;1.10;1.10;;;6.50;92.00;;;;;;4897807;29;20218;-83
2023/12/07 07:13:49;;;;;;;1.23;1.17;;;6.50;92.10;;;;;;4912615;29;20199;-84
2023/12/07 07:16:18;;;;;;;2.00;1.90;;;6.40;92.20;;;;;;4913200;29;20621;-83
2023/12/07 07:18:50;;;;;;;0.70;0.70;;;6.30;92.20;;;;;;4917744;29;20192;-82
2023/12/07 07:21:20;;;;;;;1.93;1.23;;;6.30;92.30;;;;;;4914177;29;20636;-83
2023/12/07 07:23:50;;;;;;;2.00;1.13;;;6.30;92.40;;;;;;4912167;29;20838;-84
2023/12/07 07:26:21;;;;;;;0.80;0.80;;;6.20;92.40;;;;;;4913780;29;20206;-84
2023/12/07 07:28:51;;;;;;;1.03;1.03;;;6.10;92.60;;;;;;4919075;29;20272;-85
2023/12/07 07:31:20;;;;;;;1.67;1.50;;;6.10;92.70;;;;;;4924657;29;20223;-84
2023/12/07 07:33:49;;;;;;;0.47;0.47;;;6.10;92.80;;;;;;4904719;29;20289;-82
2023/12/07 07:36:29;;;;;;;1.53;1.43;;;6.00;92.80;;;;;;4929316;29;20685;-84
2023/12/07 07:39:07;;;;;;;3.30;1.80;;;6.00;92.90;;;;;;4917056;29;20212;-83
2023/12/07 07:41:37;;;;;;;1.93;1.63;;;6.00;92.90;;;;;;4897261;29;20289;-83
2023/12/07 07:44:09;;;;;;;1.23;1.23;;;5.90;92.90;;;;;;4904915;29;20797;-84
2023/12/07 07:46:38;;;;;;;1.20;1.20;;;5.90;92.90;;;;;;4887942;29;20223;-89
2023/12/07 07:49:08;;;;;;;1.80;1.23;;;5.90;92.90;;;;;;4918098;29;20193;-81
2023/12/07 07:51:38;;;;;;;1.97;1.53;;;5.90;92.90;;;;;;4912819;29;20233;-83
2023/12/07 07:54:07;;;;;;;0.80;0.80;;;5.80;93.00;;;;;;4918425;29;20553;-84
2023/12/07 07:56:35;;;;;;;10.03;2.07;;;5.90;93.00;;;;;;4915417;29;20210;-83
2023/12/07 07:59:05;;;;;;;2.73;1.87;;;5.80;93.10;;;;;;4919419;29;20256;-82
2023/12/07 08:01:43;;;;;;;1.03;1.00;;;5.80;93.20;;;;;;4912570;29;20214;-84
2023/12/07 08:04:13;;;;;;;2.40;0.83;;;5.70;93.30;;;;;;4897991;29;20179;-84
2023/12/07 08:06:41;;;;;;;8.73;1.50;;;5.80;93.30;;;;;;4912265;29;20556;-80
2023/12/07 08:09:12;;;;;;;1.37;1.27;;;5.70;93.20;;;;;;4918641;29;20290;-84
2023/12/07 08:11:41;;;;;;;2.50;2.10;;;5.70;93.30;;;;;;4913977;29;20298;-83
2023/12/07 08:18:03;;;;;;;1.27;1.27;;;5.80;93.20;;;;;;5374162;23;20240;-84
2023/12/07 08:20:41;;;;;;;1.97;1.30;;;5.90;93.20;;;;;;5431502;23;20632;-84
2023/12/07 08:23:13;;;;;;;3.50;2.30;;;5.80;93.10;;;;;;4853097;29;20663;-86
2023/12/07 08:25:45;;;;;;;1.20;1.20;;;5.80;93.10;;;;;;4849167;29;20201;-87
2023/12/07 08:28:14;;;;;;;1.60;1.50;;;5.90;93.10;;;;;;4856485;29;20214;-84
2023/12/07 08:30:42;;;;;;;1.73;1.63;;;5.90;93.10;;;;;;4859299;29;20212;-82
2023/12/07 08:33:13;;;;;;;1.33;1.23;;;5.90;93.00;;;;;;4855393;29;20233;-85
2023/12/07 08:35:43;;;;;;;1.20;0.97;;;5.90;93.00;;;;;;4856114;29;20288;-85
2023/12/07 08:38:12;;;;;;;1.47;1.37;;;5.90;92.90;;;;;;4852182;29;20240;-84
2023/12/07 08:40:41;;;;;;;1.23;1.23;;;5.90;92.90;;;;;;4857005;29;20206;-84
2023/12/07 08:43:10;;;;;;;0.83;0.83;;;5.80;92.90;;;;;;4853094;29;20671;-85
2023/12/07 08:45:39;;;;;;;0.67;0.67;;;5.70;92.90;;;;;;4849224;29;20208;-83
2023/12/07 08:48:08;;;;;;;1.07;1.03;;;5.80;93.30;;;;;;4857571;29;20235;-81
2023/12/07 08:50:38;;;;;;;0.83;0.83;;;5.80;92.90;;;;;;4855635;29;20296;-83
2023/12/07 08:53:07;;;;;;;4.50;1.30;;;5.80;92.90;;;;;;4862103;29;20251;-84
2023/12/07 08:55:35;;;;;;;2.27;1.70;;;5.80;92.90;;;;;;4857068;29;20215;-83
2023/12/07 08:58:05;;;;;;;1.30;0.77;;;5.90;92.90;;;;;;4858193;29;20667;-83
2023/12/07 09:00:34;;;;;;;2.40;2.20;;;5.90;92.90;;;;;;4854733;29;20220;-83
2023/12/07 09:03:03;;;;;;;0.77;0.77;;;5.90;92.80;;;;;;4854410;29;20216;-83
2023/12/07 09:05:31;;;;;;;1.60;1.50;;;5.90;92.70;;;;;;4856168;29;20211;-83
2023/12/07 09:08:02;;;;;;;1.87;0.97;;;5.90;92.80;;;;;;4858047;29;20201;-84
2023/12/07 09:10:30;;;;;;;2.20;1.03;;;5.90;92.80;;;;;;4854151;29;20207;-85
2023/12/07 09:13:05;;;;;;;0.80;0.80;;;6.00;92.70;;;;;;4856510;29;20277;-95
2023/12/07 09:15:37;;;;;;;3.70;1.53;;;5.90;92.70;;;;;;4856733;29;20197;-85
2023/12/07 09:18:05;;;;;;;2.57;1.70;;;5.90;92.70;;;;;;4853679;29;20206;-86
2023/12/07 09:20:37;;;;;;;4.27;0.93;;;5.90;92.60;;;;;;4856272;29;20193;-84
2023/12/07 09:23:07;;;;;;;2.10;0.73;;;6.00;92.60;;;;;;4855431;29;20209;-83
2023/12/07 09:25:36;;;;;;;2.30;1.50;;;5.90;92.50;;;;;;4857056;29;20203;-84
2023/12/07 09:28:05;;;;;;;2.30;2.20;;;5.90;92.40;;;;;;4857622;29;20197;-83
2023/12/07 09:30:35;;;;;;;0.97;0.97;;;5.90;92.50;;;;;;4870760;29;20205;-83
2023/12/07 09:33:04;;;;;;;1.63;1.53;;;5.90;92.60;;;;;;4871654;29;20244;-82
2023/12/07 09:35:34;;;;;;;0.50;0.50;;;5.90;92.50;;;;;;4853125;29;20205;-83
2023/12/07 09:38:03;;;;;;;2.90;2.30;;;5.90;92.60;;;;;;4854751;29;20669;-85
2023/12/07 09:40:34;;;;;;;2.53;2.33;;;5.80;92.50;;;;;;4851829;29;20202;-83
2023/12/07 09:43:03;;;;;;;1.60;1.50;;;5.70;92.60;;;;;;4856456;29;20202;-85
2023/12/07 09:45:32;;;;;;;3.20;2.70;;;5.80;92.60;;;;;;4855154;29;20213;-85
2023/12/07 09:48:05;;;;;;;1.77;1.67;;;5.80;92.60;;;;;;4857139;29;20195;-83
2023/12/07 09:50:34;;;;;;;1.13;1.03;;;5.80;92.60;;;;;;4858682;29;20228;-84
2023/12/07 09:53:04;;;;;;;4.23;2.53;;;5.80;92.60;;;;;;4864536;29;20598;-81
2023/12/07 09:55:37;;;;;;;1.90;1.80;;;5.80;92.60;;;;;;4859452;29;20198;-84
2023/12/07 09:58:07;;;;;;;1.77;1.30;;;5.90;92.70;;;;;;4863028;29;20219;-83
2023/12/07 10:00:37;;;;;;;1.50;1.40;;;5.80;92.60;;;;;;4858532;29;20264;-83
2023/12/07 10:03:09;;;;;;;0.90;0.90;;;5.90;92.60;;;;;;4860682;29;20198;-84
2023/12/07 10:06:05;;;;;;;2.33;1.63;;;5.90;92.60;;;;;;4859074;29;20293;-85
2023/12/07 10:08:39;;;;;;;2.27;2.07;;;5.90;92.60;;;;;;4859293;29;20573;-85
2023/12/07 10:11:13;;;;;;;0.60;0.60;;;5.90;92.60;;;;;;4854498;29;20216;-84
2023/12/07 10:13:43;;;;;;;1.00;1.00;;;5.80;92.60;;;;;;4874724;29;20245;-84
2023/12/07 10:16:14;;;;;;;1.80;1.70;;;5.80;92.60;;;;;;4851919;29;20220;-83
2023/12/07 10:18:43;;;;;;;0.83;0.83;;;5.80;92.70;;;;;;4855781;29;20543;-83
2023/12/07 10:21:13;;;;;;;3.70;2.63;;;5.80;92.70;;;;;;4864790;29;20571;-84
2023/12/07 10:23:46;;;;;;;2.07;1.40;;;5.80;92.60;;;;;;4877003;29;20207;-83
2023/12/07 10:26:20;;;;;;;1.20;1.17;;;5.80;92.70;;;;;;4880550;29;20586;-84
2023/12/07 10:28:54;;;;;;;1.13;1.13;;;5.90;92.70;;;;;;4877905;29;20213;-83
2023/12/07 10:31:24;;;;;;;1.70;1.57;;;5.80;92.60;;;;;;4874507;29;20204;-83
2023/12/07 10:33:53;;;;;;;1.73;1.63;;;5.90;92.70;;;;;;4875924;29;20572;-83
2023/12/07 10:36:23;;;;;;;4.10;2.20;;;5.80;92.60;;;;;;4879176;29;20613;-83
2023/12/07 10:38:52;;;;;;;0.80;0.80;;;5.90;92.70;;;;;;4878763;29;20675;-83
2023/12/07 10:41:24;;;;;;;4.37;2.23;;;5.80;92.70;;;;;;4879723;29;20199;-85
2023/12/07 10:43:54;;;;;;;6.23;2.90;;;5.80;92.60;;;;;;4877184;29;20200;-84
2023/12/07 10:46:23;;;;;;;2.53;2.03;;;5.80;92.60;;;;;;4876393;29;20206;-83
2023/12/07 10:48:56;;;;;;;2.17;1.77;;;5.90;92.60;;;;;;4877413;29;20555;-82
2023/12/07 10:51:31;;;;;;;0.93;0.93;;;5.90;92.60;;;;;;4872058;29;21026;-84
2023/12/07 11:27:24;;;;;;;1.03;1.03;;;5.80;92.70;;;;;;5552734;23;20549;-82
2023/12/07 11:29:53;;;;;;;1.17;0.80;;;5.80;92.70;;;;;;4883452;29;20218;-86
2023/12/07 11:32:21;;;;;;;2.83;2.00;;;5.90;92.70;;;;;;4881668;29;20219;-84
2023/12/07 11:35:03;;;;;;;4.20;2.53;;;5.90;92.70;;;;;;4883512;29;20227;-84
2023/12/07 11:38:03;;;;;;;1.60;1.50;;;6.00;92.70;;;;;;4886059;29;20253;-83
2023/12/07 11:40:32;;;;;;;4.67;2.33;;;6.00;92.70;;;;;;4884064;29;20196;-83
2023/12/07 11:46:42;;;;;;;2.77;2.23;;;6.10;92.60;;;;;;5856912;23;20209;-84
2023/12/07 11:49:11;;;;;;;1.70;1.60;;;6.20;92.50;;;;;;4894690;29;20303;-87
2023/12/07 11:51:56;;;;;;;1.03;1.03;;;6.20;92.50;;;;;;4901968;29;20204;-84
2023/12/07 11:54:24;;;;;;;2.13;2.03;;;6.20;92.20;;;;;;4888118;29;21324;-86
2023/12/07 11:56:54;;;;;;;1.80;1.67;;;6.30;92.30;;;;;;4897493;29;20303;-90
2023/12/07 11:59:25;;;;;;;4.20;1.90;;;6.30;92.30;;;;;;4901181;29;20216;-85
2023/12/07 12:02:03;;;;;;;2.00;1.67;;;6.30;92.20;;;;;;4892112;29;20220;-86
2023/12/07 12:04:32;;;;;;;2.43;2.23;;;6.40;92.10;;;;;;4894308;29;20226;-87
2023/12/07 12:07:01;;;;;;;5.20;2.67;;;6.40;92.00;;;;;;4896617;29;20208;-87
2023/12/07 12:09:29;;;;;;;1.43;1.03;;;6.50;91.90;;;;;;4893581;29;20204;-89
2023/12/07 12:12:01;;;;;;;3.90;3.00;;;6.40;91.50;;;;;;4894127;29;20193;-89
2023/12/07 12:14:30;;;;;;;1.67;1.57;;;6.50;91.60;;;;;;4895183;29;20232;-88
2023/12/07 12:16:58;;;;;;;1.43;1.37;;;6.50;91.50;;;;;;4899078;29;20203;-88
2023/12/07 12:19:29;;;;;;;1.40;1.30;;;6.60;91.50;;;;;;4879628;29;20214;-87
2023/12/07 12:22:02;;;;;;;3.37;1.70;;;6.60;91.40;;;;;;4895475;29;20200;-86
2023/12/07 12:27:33;;;;;;;8.47;3.37;;;6.70;91.30;;;;;;4905456;23;20220;-87
2023/12/07 12:30:03;;;;;;;3.30;3.00;;;6.70;91.10;;;;;;4911389;29;20514;-86
2023/12/07 12:32:43;;;;;;;1.60;1.50;;;6.70;91.10;;;;;;4900447;29;20211;-87
2023/12/07 12:35:14;;;;;;;1.43;1.33;;;6.70;91.10;;;;;;4897352;29;20227;-86
2023/12/07 12:37:43;;;;;;;1.70;1.60;;;6.80;91.10;;;;;;4900402;29;20208;-85
2023/12/07 12:40:13;;;;;;;2.17;2.07;;;6.70;91.10;;;;;;4901379;29;20633;-88
2023/12/07 12:42:41;;;;;;;1.80;1.70;;;6.70;91.20;;;;;;4897291;29;20235;-89
2023/12/07 12:45:12;;;;;;;2.97;2.73;;;6.80;91.20;;;;;;4899428;29;20299;-88
2023/12/07 12:47:42;;;;;;;1.13;1.13;;;6.80;91.20;;;;;;4898153;29;20212;-90
2023/12/07 12:50:13;;;;;;;2.07;1.40;;;6.80;91.20;;;;;;4901460;29;20208;-86
2023/12/07 12:52:42;;;;;;;1.73;1.63;;;6.80;91.20;;;;;;4900054;29;20214;-90
2023/12/07 12:57:56;;;;;;;4.53;4.10;;;6.90;91.20;;;;;;4902079;29;20193;-87
2023/12/07 13:00:26;;;;;;;1.67;1.57;;;6.90;91.00;;;;;;4903432;29;20212;-87
2023/12/07 13:02:55;;;;;;;13.43;2.63;;;6.90;91.00;;;;;;4902065;29;20196;-85
2023/12/07 13:05:25;;;;;;;4.07;2.93;;;6.90;90.80;;;;;;4899125;29;20192;-86
2023/12/07 13:07:54;;;;;;;1.60;1.50;;;6.90;90.90;;;;;;4901889;29;20602;-86
2023/12/07 13:10:40;;;;;;;1.83;1.73;;;6.90;91.00;;;;;;4898795;29;20207;-86
2023/12/07 13:13:09;;;;;;;4.63;2.80;;;6.80;90.90;;;;;;4901287;29;20208;-84
2023/12/07 13:15:38;;;;;;;1.93;1.83;;;6.80;90.80;;;;;;4905418;29;20211;-85
2023/12/07 13:18:07;;;;;;;1.60;0.70;;;6.90;91.00;;;;;;4901418;29;20192;-84
2023/12/07 13:20:37;;;;;;;2.03;1.80;;;6.90;90.80;;;;;;4897064;29;20208;-87
2023/12/07 13:23:08;;;;;;;1.10;0.93;;;6.80;90.90;;;;;;4900374;29;20211;-87
2023/12/07 13:25:37;;;;;;;1.63;1.53;;;6.90;90.80;;;;;;4908750;29;20240;-86
2023/12/07 13:28:06;;;;;;;2.77;2.57;;;6.90;90.70;;;;;;4898964;29;20192;-86
2023/12/07 13:30:35;;;;;;;2.37;1.63;;;6.90;90.70;;;;;;4898347;29;20272;-86
2023/12/07 13:33:05;;;;;;;2.67;1.83;;;6.90;90.70;;;;;;4898689;29;20208;-83
2023/12/07 13:35:54;;;;;;;2.13;2.03;;;6.90;90.80;;;;;;4908166;29;20206;-85
2023/12/07 13:38:24;;;;;;;2.07;1.80;;;6.90;90.70;;;;;;4897817;29;20226;-84
2023/12/07 13:40:53;;;;;;;1.63;1.53;;;6.90;90.70;;;;;;4906486;29;20231;-86
2023/12/07 13:43:23;;;;;;;5.93;1.97;;;6.90;90.70;;;;;;4898351;29;20766;-87
2023/12/07 13:54:01;;;;;;;2.37;2.17;;;6.90;90.50;;;;;;4906701;29;20216;-86
2023/12/07 13:56:29;;;;;;;1.50;1.33;;;6.90;90.60;;;;;;4901887;29;20215;-87
2023/12/07 13:58:58;;;;;;;1.37;1.27;;;7.00;90.50;;;;;;4906282;29;20192;-86
2023/12/07 14:01:27;;;;;;;0.60;0.60;;;7.00;90.50;;;;;;4904667;29;20204;-86
2023/12/07 14:03:56;;;;;;;4.53;2.33;;;7.00;90.50;;;;;;4907196;29;20295;-85
2023/12/07 14:06:27;;;;;;;1.40;1.30;;;6.90;90.50;;;;;;4909288;29;20228;-84
2023/12/07 14:08:57;;;;;;;2.13;1.77;;;6.90;90.40;;;;;;4908631;29;20200;-86
2023/12/07 14:11:26;;;;;;;2.13;1.93;;;6.90;90.40;;;;;;4910266;29;20310;-85
2023/12/07 14:13:54;;;;;;;2.77;2.13;;;6.90;90.50;;;;;;4902342;29;20192;-84